La Tontouta International Airport
NWWW : now visible

Airfield :











YOU CAN JOIN US ON...

 
LOGIN :

Register | Disclaimer

   EN    FR    IT 

 









Legend :    VFR   Marginal VFR   IFR   Intensive IFR   Very Intensive IFR
Visi :
Ceiling :
>= 8 km
>= 3000ft
5 to 8 km
1000 to 3000 ft
1500m to 5 km
500 to 1000 ft
800 to 1500m
200 to 500 ft
< 800m
< 200 ft
Symbols :   Thunderstorms  Fog  Heavy snow  Heavy precipitations  Wind > 20 kt






- Airport Elevation : 52 ft
- IATA code : NOU


NWWW - La Tontouta International

CURRENT METAR :
  • 280100Z AUTO 03003KT 320V090 9999 FEW025/// SCT100/// ///TCU 26/21 Q1009 TEMPO 4500 SHRA

EXPIRED METARs :
  • 280030Z AUTO 36003KT 280V040 9999 RA FEW025/// OVC094/// ///CB 25/21 Q1009 TEMPO 4500 SHRA
  • 280000Z AUTO VRB03KT 9999 ///TCU 26/21 Q1010 TEMPO 4500 SHRA
  • 272330Z AUTO 18004KT 120V220 9999 NSC 25/20 Q1010 TEMPO 4500 SHRA FEW020TCU
  • 272300Z AUTO 13004KT 080V170 9999 NSC 25/20 Q1010 TEMPO 1200 TSRA BKN010 FEW015CB
  • 272230Z AUTO VRB03KT 9999 NSC 25/20 Q1011 TEMPO 1200 TSRA BKN010 FEW015CB

TAF TAF NWWW
Valid from the 28 at 00:00 until the 29 at 00:00 UTC


272300Z 2800/2824 26005KT 9999 FEW020 SCT045
TEMPO 2800/2811 4500 SHRA FEW020TCU
BECMG 2808/2810 05005KT
BECMG 2822/2824 27010KT
NFFF FIR / Oceania



MET'MAP, your aeronautical weather chart ! - Copyright ORBIFLY December 2007 - Disclaimer

ORBIFLY MET'MAP TEAM :

Programming & Development : Alexandra Zaïnal
Original concept : Baudouin d'Aumeries
Technical & hardware support : Manuel Goepfert
Assistance : Marc-Olivier Méhu

Contact : metmap@orbifly.com




SOURCES & CREDITS :

   NOAA       Earth
Advisory